Terminal Aerodrome Forecast
Issued by NWS

Home | Current Version | Previous Version | Graphics & Text | Print | Product List | Glossary On
Versions: 1 2 3 4 5 6 7 8 9 10 11 12 13 14 15 16 17 18 19 20 21 22 23 24 25 26 27 28 29 30
481
FTUS43 KLOT 231503 AAB
TAFDPA
TAF AMD
KDPA 231503Z 2315/2412 02007KT P6SM FEW015 SCT200
     FM231615 03011KT P6SM BKN012
     FM231800 04012G18KT P6SM BKN015
     FM232100 04013G19KT P6SM VCSH BKN020 OVC080
      TEMPO 2322/2401 -SHRA
     FM240100 05014G21KT 5SM -SHRA BR OVC008
     FM240500 06014G22KT 3SM SHRA BR OVC005 PROB30 2406/2411 2SM
      TSRA OVC008CB=

USA.gov is the U.S. government's official web portal to all federal, state and local government web resources and services.